sensor_id;sensor_type;location;lat;lon;timestamp;pressure;altitude;pressure_sealevel;temperature;humidity
13241;BME280;6687;47.790;7.322;2023-05-02T05:24:30;99378.69;;;12.52;80.06
13241;BME280;6687;47.790;7.322;2023-05-02T05:26:57;99377.81;;;12.44;80.02
13241;BME280;6687;47.790;7.322;2023-05-02T05:29:23;99383.88;;;12.34;80.22
13241;BME280;6687;47.790;7.322;2023-05-02T05:31:50;99389.06;;;12.34;79.53
13241;BME280;6687;47.790;7.322;2023-05-02T05:34:17;99382.13;;;12.45;79.18
13241;BME280;6687;47.790;7.322;2023-05-02T05:36:43;99395.19;;;12.64;78.50
13241;BME280;6687;47.790;7.322;2023-05-02T05:39:10;99399.50;;;12.71;78.03
13241;BME280;6687;47.790;7.322;2023-05-02T05:41:38;99399.47;;;12.57;78.41
13241;BME280;6687;47.790;7.322;2023-05-02T05:44:05;99402.09;;;12.52;78.35
13241;BME280;6687;47.790;7.322;2023-05-02T05:46:32;99406.44;;;12.64;77.91
13241;BME280;6687;47.790;7.322;2023-05-02T05:48:58;99408.19;;;12.65;77.81
13241;BME280;6687;47.790;7.322;2023-05-02T05:51:25;99423.78;;;12.71;77.76
13241;BME280;6687;47.790;7.322;2023-05-02T05:53:53;99420.28;;;12.59;78.08
13241;BME280;6687;47.790;7.322;2023-05-02T05:56:19;99422.06;;;12.81;77.91
13241;BME280;6687;47.790;7.322;2023-05-02T05:58:48;99417.69;;;12.49;78.01
13241;BME280;6687;47.790;7.322;2023-05-02T06:01:15;99423.75;;;12.62;77.62
13241;BME280;6687;47.790;7.322;2023-05-02T06:03:42;99426.34;;;12.79;77.43
13241;BME280;6687;47.790;7.322;2023-05-02T06:06:08;99422.03;;;13.06;76.40
13241;BME280;6687;47.790;7.322;2023-05-02T06:08:35;99416.81;;;13.41;75.18
13241;BME280;6687;47.790;7.322;2023-05-02T06:11:02;99422.91;;;13.14;76.19
13241;BME280;6687;47.790;7.322;2023-05-02T06:13:29;99421.16;;;13.19;75.51
13241;BME280;6687;47.790;7.322;2023-05-02T06:16:00;99422.88;;;13.51;74.47
13241;BME280;6687;47.790;7.322;2023-05-02T06:18:27;99434.16;;;13.41;73.62
13241;BME280;6687;47.790;7.322;2023-05-02T06:20:54;99426.31;;;13.56;73.81
13241;BME280;6687;47.790;7.322;2023-05-02T06:23:21;99431.56;;;13.39;73.79
13241;BME280;6687;47.790;7.322;2023-05-02T06:25:47;99429.84;;;13.35;73.93
13241;BME280;6687;47.790;7.322;2023-05-02T06:28:14;99435.88;;;13.57;73.71
13241;BME280;6687;47.790;7.322;2023-05-02T06:30:41;99446.97;;;14.05;72.09
13241;BME280;6687;47.790;7.322;2023-05-02T06:33:09;99443.41;;;14.20;71.99
13241;BME280;6687;47.790;7.322;2023-05-02T06:35:36;99447.81;;;14.15;69.89
13241;BME280;6687;47.790;7.322;2023-05-02T06:38:03;99448.47;;;14.52;68.21
13241;BME280;6687;47.790;7.322;2023-05-02T06:40:30;99448.22;;;14.93;67.57
13241;BME280;6687;47.790;7.322;2023-05-02T06:42:56;99441.91;;;15.17;66.67
13241;BME280;6687;47.790;7.322;2023-05-02T06:45:23;99440.94;;;15.28;66.34
13241;BME280;6687;47.790;7.322;2023-05-02T06:47:50;99447.81;;;15.36;66.17
13241;BME280;6687;47.790;7.322;2023-05-02T06:50:19;99449.41;;;15.52;64.33
13241;BME280;6687;47.790;7.322;2023-05-02T06:52:45;99449.34;;;15.58;65.43
13241;BME280;6687;47.790;7.322;2023-05-02T06:55:12;99448.31;;;15.75;63.69
13241;BME280;6687;47.790;7.322;2023-05-02T06:57:39;99447.31;;;15.85;62.21
13241;BME280;6687;47.790;7.322;2023-05-02T07:00:07;99448.00;;;16.01;62.69
13241;BME280;6687;47.790;7.322;2023-05-02T07:02:34;99437.44;;;16.10;61.83
13241;BME280;6687;47.790;7.322;2023-05-02T07:05:00;99446.91;;;16.19;62.32
13241;BME280;6687;47.790;7.322;2023-05-02T07:07:29;99448.50;;;16.29;61.67
13241;BME280;6687;47.790;7.322;2023-05-02T07:09:55;99444.75;;;16.48;61.96
13241;BME280;6687;47.790;7.322;2023-05-02T07:12:22;99438.59;;;16.53;60.19
13241;BME280;6687;47.790;7.322;2023-05-02T07:14:49;99440.06;;;16.70;60.22
13241;BME280;6687;47.790;7.322;2023-05-02T07:17:15;99444.28;;;16.82;59.61
13241;BME280;6687;47.790;7.322;2023-05-02T07:19:42;99448.31;;;17.03;60.20
13241;BME280;6687;47.790;7.322;2023-05-02T07:22:09;99438.72;;;17.04;58.41
13241;BME280;6687;47.790;7.322;2023-05-02T07:24:39;99443.69;;;17.19;58.45
13241;BME280;6687;47.790;7.322;2023-05-02T07:27:07;99443.72;;;17.16;57.51
13241;BME280;6687;47.790;7.322;2023-05-02T07:29:35;99457.88;;;17.54;58.91
13241;BME280;6687;47.790;7.322;2023-05-02T07:32:02;99451.78;;;17.55;57.40
13241;BME280;6687;47.790;7.322;2023-05-02T07:34:29;99451.41;;;17.75;58.39
13241;BME280;6687;47.790;7.322;2023-05-02T07:36:56;99444.03;;;17.94;58.14
13241;BME280;6687;47.790;7.322;2023-05-02T07:39:23;99450.25;;;17.88;57.05
13241;BME280;6687;47.790;7.322;2023-05-02T07:41:51;99445.41;;;18.12;56.94
13241;BME280;6687;47.790;7.322;2023-05-02T07:44:18;99448.56;;;18.28;56.88
13241;BME280;6687;47.790;7.322;2023-05-02T07:46:44;99453.81;;;18.28;56.89
13241;BME280;6687;47.790;7.322;2023-05-02T07:49:11;99450.38;;;18.26;57.38
13241;BME280;6687;47.790;7.322;2023-05-02T07:51:38;99450.91;;;18.42;54.02
13241;BME280;6687;47.790;7.322;2023-05-02T07:54:14;99451.66;;;18.48;56.18
13241;BME280;6687;47.790;7.322;2023-05-02T07:56:41;99451.06;;;18.73;55.61
13241;BME280;6687;47.790;7.322;2023-05-02T07:59:09;99451.75;;;18.83;55.43
13241;BME280;6687;47.790;7.322;2023-05-02T08:01:36;99459.25;;;18.59;54.59
13241;BME280;6687;47.790;7.322;2023-05-02T08:04:03;99456.44;;;19.06;52.83
13241;BME280;6687;47.790;7.322;2023-05-02T08:06:30;99459.41;;;18.92;55.71
13241;BME280;6687;47.790;7.322;2023-05-02T08:08:58;99461.91;;;19.33;54.83
13241;BME280;6687;47.790;7.322;2023-05-02T08:11:25;99468.00;;;19.33;51.92
13241;BME280;6687;47.790;7.322;2023-05-02T08:13:51;99467.50;;;19.52;53.74
13241;BME280;6687;47.790;7.322;2023-05-02T08:16:20;99467.19;;;18.95;51.09
13241;BME280;6687;47.790;7.322;2023-05-02T08:18:47;99466.44;;;19.60;50.08
13241;BME280;6687;47.790;7.322;2023-05-02T08:21:13;99469.28;;;19.51;51.84
13241;BME280;6687;47.790;7.322;2023-05-02T08:23:40;99474.69;;;20.11;53.66
13241;BME280;6687;47.790;7.322;2023-05-02T08:26:07;99479.13;;;20.09;50.00
13241;BME280;6687;47.790;7.322;2023-05-02T08:28:34;99467.97;;;19.35;48.70
13241;BME280;6687;47.790;7.322;2023-05-02T08:31:00;99481.38;;;20.22;52.08
13241;BME280;6687;47.790;7.322;2023-05-02T08:33:29;99475.69;;;20.36;47.94
13241;BME280;6687;47.790;7.322;2023-05-02T08:35:56;99471.00;;;20.48;52.41
13241;BME280;6687;47.790;7.322;2023-05-02T08:38:24;99477.34;;;20.70;51.20
13241;BME280;6687;47.790;7.322;2023-05-02T08:40:51;99474.50;;;19.53;46.72
13241;BME280;6687;47.790;7.322;2023-05-02T08:43:18;99476.88;;;20.26;45.25
13241;BME280;6687;47.790;7.322;2023-05-02T08:45:45;99487.53;;;20.81;46.74
13241;BME280;6687;47.790;7.322;2023-05-02T08:48:12;99482.78;;;20.04;46.21
13241;BME280;6687;47.790;7.322;2023-05-02T08:50:43;99486.97;;;20.71;45.85
13241;BME280;6687;47.790;7.322;2023-05-02T08:53:13;99479.94;;;20.72;46.85
13241;BME280;6687;47.790;7.322;2023-05-02T08:55:41;99480.44;;;21.11;48.90
13241;BME280;6687;47.790;7.322;2023-05-02T08:58:08;99469.09;;;21.34;44.10
13241;BME280;6687;47.790;7.322;2023-05-02T09:00:38;99478.59;;;21.67;48.48
13241;BME280;6687;47.790;7.322;2023-05-02T09:03:10;99484.59;;;21.70;47.95
13241;BME280;6687;47.790;7.322;2023-05-02T09:05:45;99482.19;;;21.11;44.31
13241;BME280;6687;47.790;7.322;2023-05-02T09:08:21;99477.56;;;21.71;44.50
13241;BME280;6687;47.790;7.322;2023-05-02T09:10:48;99487.31;;;21.92;47.79
13241;BME280;6687;47.790;7.322;2023-05-02T09:13:28;99485.41;;;21.47;49.07
13241;BME280;6687;47.790;7.322;2023-05-02T09:15:56;99485.06;;;22.07;42.25
13241;BME280;6687;47.790;7.322;2023-05-02T09:18:25;99484.41;;;22.25;45.77
13241;BME280;6687;47.790;7.322;2023-05-02T09:20:54;99478.09;;;21.55;42.55
13241;BME280;6687;47.790;7.322;2023-05-02T09:23:31;99486.66;;;22.11;42.49
13241;BME280;6687;47.790;7.322;2023-05-02T09:25:58;99491.63;;;21.95;46.59
13241;BME280;6687;47.790;7.322;2023-05-02T09:28:37;99491.41;;;22.48;45.68
13241;BME280;6687;47.790;7.322;2023-05-02T09:31:06;99490.84;;;22.63;45.79
13241;BME280;6687;47.790;7.322;2023-05-02T09:33:33;99495.59;;;22.54;41.03
13241;BME280;6687;47.790;7.322;2023-05-02T09:36:01;99488.84;;;22.92;44.21
13241;BME280;6687;47.790;7.322;2023-05-02T09:38:28;99488.69;;;22.51;40.62
13241;BME280;6687;47.790;7.322;2023-05-02T09:40:55;99482.25;;;22.80;43.06
13241;BME280;6687;47.790;7.322;2023-05-02T09:43:22;99483.72;;;22.88;44.75
13241;BME280;6687;47.790;7.322;2023-05-02T09:45:55;99488.84;;;23.14;43.69
13241;BME280;6687;47.790;7.322;2023-05-02T09:48:22;99482.63;;;22.71;43.16
13241;BME280;6687;47.790;7.322;2023-05-02T09:50:49;99489.38;;;23.22;41.75
13241;BME280;6687;47.790;7.322;2023-05-02T09:53:17;99482.00;;;23.31;40.54
13241;BME280;6687;47.790;7.322;2023-05-02T09:55:43;99483.94;;;23.26;42.01
13241;BME280;6687;47.790;7.322;2023-05-02T09:58:19;99487.06;;;23.15;43.02
13241;BME280;6687;47.790;7.322;2023-05-02T10:00:46;99484.53;;;23.34;43.04
13241;BME280;6687;47.790;7.322;2023-05-02T10:03:16;99479.78;;;22.76;38.84
13241;BME280;6687;47.790;7.322;2023-05-02T10:05:43;99486.91;;;23.40;38.40
13241;BME280;6687;47.790;7.322;2023-05-02T10:08:11;99480.66;;;22.98;38.42
13241;BME280;6687;47.790;7.322;2023-05-02T10:10:44;99484.91;;;23.45;40.95
13241;BME280;6687;47.790;7.322;2023-05-02T10:13:12;99473.41;;;23.87;38.74
13241;BME280;6687;47.790;7.322;2023-05-02T10:15:42;99476.56;;;23.75;40.42
13241;BME280;6687;47.790;7.322;2023-05-02T10:18:13;99481.34;;;23.87;38.03
13241;BME280;6687;47.790;7.322;2023-05-02T10:20:43;99487.56;;;23.02;39.80
13241;BME280;6687;47.790;7.322;2023-05-02T10:23:14;99485.56;;;23.71;36.00
13241;BME280;6687;47.790;7.322;2023-05-02T10:25:44;99487.72;;;24.41;38.79
13241;BME280;6687;47.790;7.322;2023-05-02T10:28:11;99487.31;;;24.51;40.95
13241;BME280;6687;47.790;7.322;2023-05-02T10:30:40;99481.78;;;23.78;34.77
13241;BME280;6687;47.790;7.322;2023-05-02T10:33:07;99477.28;;;23.99;35.34
13241;BME280;6687;47.790;7.322;2023-05-02T10:35:35;99474.06;;;23.31;36.03
13241;BME280;6687;47.790;7.322;2023-05-02T10:38:02;99468.38;;;24.01;39.02
13241;BME280;6687;47.790;7.322;2023-05-02T10:40:31;99475.94;;;23.70;36.28
13241;BME280;6687;47.790;7.322;2023-05-02T10:43:00;99475.13;;;23.88;35.75
13241;BME280;6687;47.790;7.322;2023-05-02T10:45:31;99471.91;;;24.59;40.36
13241;BME280;6687;47.790;7.322;2023-05-02T10:48:15;99468.53;;;24.36;36.21
13241;BME280;6687;47.790;7.322;2023-05-02T10:50:44;99465.78;;;24.19;36.26
13241;BME280;6687;47.790;7.322;2023-05-02T10:53:32;99469.94;;;22.79;36.74
13241;BME280;6687;47.790;7.322;2023-05-02T10:56:14;99472.03;;;23.78;35.29
13241;BME280;6687;47.790;7.322;2023-05-02T10:58:44;99480.06;;;24.35;37.90
13241;BME280;6687;47.790;7.322;2023-05-02T11:01:33;99468.75;;;23.51;35.47
13241;BME280;6687;47.790;7.322;2023-05-02T11:04:03;99464.59;;;23.87;38.11
13241;BME280;6687;47.790;7.322;2023-05-02T11:06:31;99469.53;;;24.34;35.73
13241;BME280;6687;47.790;7.322;2023-05-02T11:09:29;99460.81;;;24.51;34.96
13241;BME280;6687;47.790;7.322;2023-05-02T11:11:55;99458.59;;;24.97;39.11
13241;BME280;6687;47.790;7.322;2023-05-02T11:14:46;99457.63;;;24.05;34.64
13241;BME280;6687;47.790;7.322;2023-05-02T11:17:14;99450.22;;;25.24;38.59
13241;BME280;6687;47.790;7.322;2023-05-02T11:22:57;99457.88;;;24.93;33.07
13241;BME280;6687;47.790;7.322;2023-05-02T11:25:29;99455.06;;;24.22;33.54
13241;BME280;6687;47.790;7.322;2023-05-02T11:27:56;99449.13;;;25.45;37.98
13241;BME280;6687;47.790;7.322;2023-05-02T11:30:41;99441.50;;;24.85;35.24
13241;BME280;6687;47.790;7.322;2023-05-02T11:33:15;99454.19;;;24.78;33.63
13241;BME280;6687;47.790;7.322;2023-05-02T11:35:43;99454.56;;;25.42;36.95
13241;BME280;6687;47.790;7.322;2023-05-02T11:38:13;99455.03;;;23.84;34.68
13241;BME280;6687;47.790;7.322;2023-05-02T11:40:46;99447.28;;;23.59;33.94
13241;BME280;6687;47.790;7.322;2023-05-02T11:43:17;99446.41;;;24.37;33.51
13241;BME280;6687;47.790;7.322;2023-05-02T11:45:45;99454.09;;;24.99;36.61
13241;BME280;6687;47.790;7.322;2023-05-02T11:48:13;99440.91;;;25.50;35.06
13241;BME280;6687;47.790;7.322;2023-05-02T11:50:41;99442.25;;;25.41;32.43
13241;BME280;6687;47.790;7.322;2023-05-02T11:53:13;99443.91;;;24.34;32.86
13241;BME280;6687;47.790;7.322;2023-05-02T11:55:44;99440.63;;;24.29;33.70
13241;BME280;6687;47.790;7.322;2023-05-02T11:58:12;99442.31;;;24.11;32.66
13241;BME280;6687;47.790;7.322;2023-05-02T12:00:39;99430.94;;;25.37;31.89
13241;BME280;6687;47.790;7.322;2023-05-02T12:03:07;99427.66;;;25.32;30.75
13241;BME280;6687;47.790;7.322;2023-05-02T12:05:34;99429.28;;;25.17;31.62
13241;BME280;6687;47.790;7.322;2023-05-02T12:08:01;99432.78;;;25.18;32.29
13241;BME280;6687;47.790;7.322;2023-05-02T12:10:37;99434.91;;;25.11;36.26
13241;BME280;6687;47.790;7.322;2023-05-02T12:13:04;99430.31;;;26.01;35.63
13241;BME280;6687;47.790;7.322;2023-05-02T12:15:31;99424.47;;;26.10;32.33
13241;BME280;6687;47.790;7.322;2023-05-02T12:17:58;99432.81;;;25.86;31.42
13241;BME280;6687;47.790;7.322;2023-05-02T12:20:27;99427.25;;;25.57;32.32
13241;BME280;6687;47.790;7.322;2023-05-02T12:22:54;99427.66;;;25.83;30.04
13241;BME280;6687;47.790;7.322;2023-05-02T12:25:21;99433.41;;;26.09;34.72
13241;BME280;6687;47.790;7.322;2023-05-02T12:27:58;99426.06;;;26.62;30.04
13241;BME280;6687;47.790;7.322;2023-05-02T12:30:25;99436.00;;;25.59;30.12
13241;BME280;6687;47.790;7.322;2023-05-02T12:32:55;99424.03;;;25.68;29.17
13241;BME280;6687;47.790;7.322;2023-05-02T12:35:23;99430.91;;;25.88;29.79
13241;BME280;6687;47.790;7.322;2023-05-02T12:37:52;99427.38;;;24.85;30.50
13241;BME280;6687;47.790;7.322;2023-05-02T12:40:19;99421.50;;;26.32;31.69
13241;BME280;6687;47.790;7.322;2023-05-02T12:42:57;99423.91;;;25.87;32.20
13241;BME280;6687;47.790;7.322;2023-05-02T12:45:25;99426.94;;;26.62;34.75
13241;BME280;6687;47.790;7.322;2023-05-02T12:47:53;99419.88;;;26.29;29.50
13241;BME280;6687;47.790;7.322;2023-05-02T12:50:34;99426.22;;;25.60;29.54
13241;BME280;6687;47.790;7.322;2023-05-02T12:53:02;99425.00;;;26.96;30.99
13241;BME280;6687;47.790;7.322;2023-05-02T12:55:29;99411.81;;;26.78;28.04
13241;BME280;6687;47.790;7.322;2023-05-02T12:58:01;99413.78;;;27.05;32.91
13241;BME280;6687;47.790;7.322;2023-05-02T13:00:28;99427.22;;;26.08;28.49
13241;BME280;6687;47.790;7.322;2023-05-02T13:02:54;99423.75;;;27.02;29.03
13241;BME280;6687;47.790;7.322;2023-05-02T13:05:22;99430.00;;;26.70;28.35
13241;BME280;6687;47.790;7.322;2023-05-02T13:07:49;99417.88;;;27.27;29.20
13241;BME280;6687;47.790;7.322;2023-05-02T13:10:17;99416.16;;;26.79;28.11
13241;BME280;6687;47.790;7.322;2023-05-02T13:12:44;99425.69;;;26.20;27.59
13241;BME280;6687;47.790;7.322;2023-05-02T13:15:11;99418.31;;;26.57;27.32
13241;BME280;6687;47.790;7.322;2023-05-02T13:17:38;99410.47;;;25.05;28.83
13241;BME280;6687;47.790;7.322;2023-05-02T13:20:06;99413.16;;;26.06;28.21
13241;BME280;6687;47.790;7.322;2023-05-02T13:22:33;99420.56;;;26.17;29.02
13241;BME280;6687;47.790;7.322;2023-05-02T13:25:00;99411.97;;;26.44;27.68
13241;BME280;6687;47.790;7.322;2023-05-02T13:27:29;99416.78;;;26.53;28.20
13241;BME280;6687;47.790;7.322;2023-05-02T13:29:56;99414.22;;;26.35;28.41
13241;BME280;6687;47.790;7.322;2023-05-02T13:32:22;99415.66;;;25.76;28.27
13241;BME280;6687;47.790;7.322;2023-05-02T13:34:49;99400.69;;;27.32;31.97
13241;BME280;6687;47.790;7.322;2023-05-02T13:37:16;99414.72;;;26.42;27.24
13241;BME280;6687;47.790;7.322;2023-05-02T13:39:42;99411.63;;;27.42;27.62
13241;BME280;6687;47.790;7.322;2023-05-02T13:42:10;99408.09;;;27.11;25.84
13241;BME280;6687;47.790;7.322;2023-05-02T13:44:38;99407.00;;;27.46;25.30
13241;BME280;6687;47.790;7.322;2023-05-02T13:47:05;99409.13;;;27.25;26.42
13241;BME280;6687;47.790;7.322;2023-05-02T13:49:31;99407.97;;;25.54;28.36
13241;BME280;6687;47.790;7.322;2023-05-02T13:51:58;99409.66;;;26.37;27.82
13241;BME280;6687;47.790;7.322;2023-05-02T13:54:25;99407.34;;;26.31;27.31
13241;BME280;6687;47.790;7.322;2023-05-02T13:56:52;99408.06;;;27.57;27.06
13241;BME280;6687;47.790;7.322;2023-05-02T13:59:19;99405.56;;;27.83;26.96
13241;BME280;6687;47.790;7.322;2023-05-02T14:01:48;99399.56;;;27.06;32.38
13241;BME280;6687;47.790;7.322;2023-05-02T14:04:15;99407.22;;;27.27;27.78
13241;BME280;6687;47.790;7.322;2023-05-02T14:06:42;99410.16;;;27.22;25.61
13241;BME280;6687;47.790;7.322;2023-05-02T14:09:09;99407.53;;;26.76;25.84
13241;BME280;6687;47.790;7.322;2023-05-02T14:11:35;99407.59;;;26.90;25.87
13241;BME280;6687;47.790;7.322;2023-05-02T14:14:02;99404.78;;;26.62;26.62
13241;BME280;6687;47.790;7.322;2023-05-02T14:16:29;99403.22;;;26.10;26.50
13241;BME280;6687;47.790;7.322;2023-05-02T14:18:57;99405.75;;;27.51;26.26
13241;BME280;6687;47.790;7.322;2023-05-02T14:21:23;99400.66;;;28.06;25.87
13241;BME280;6687;47.790;7.322;2023-05-02T14:23:51;99403.59;;;26.67;27.29
13241;BME280;6687;47.790;7.322;2023-05-02T14:26:18;99406.38;;;28.00;28.03
13241;BME280;6687;47.790;7.322;2023-05-02T14:28:44;99409.81;;;27.28;26.41
13241;BME280;6687;47.790;7.322;2023-05-02T14:31:11;99406.50;;;26.78;25.81
13241;BME280;6687;47.790;7.322;2023-05-02T14:33:38;99408.88;;;27.87;26.59
13241;BME280;6687;47.790;7.322;2023-05-02T14:36:06;99406.84;;;26.09;25.77
13241;BME280;6687;47.790;7.322;2023-05-02T14:38:33;99395.56;;;27.13;25.21
13241;BME280;6687;47.790;7.322;2023-05-02T14:41:00;99398.94;;;26.87;25.54
13241;BME280;6687;47.790;7.322;2023-05-02T14:43:28;99398.53;;;26.47;26.81
13241;BME280;6687;47.790;7.322;2023-05-02T14:45:55;99406.81;;;26.88;27.57
13241;BME280;6687;47.790;7.322;2023-05-02T14:48:22;99409.38;;;27.20;27.04
13241;BME280;6687;47.790;7.322;2023-05-02T14:50:48;99413.53;;;26.48;27.05
13241;BME280;6687;47.790;7.322;2023-05-02T14:53:16;99405.47;;;25.84;28.23
13241;BME280;6687;47.790;7.322;2023-05-02T14:55:43;99407.84;;;26.22;27.45
13241;BME280;6687;47.790;7.322;2023-05-02T14:58:10;99408.75;;;26.38;27.83
13241;BME280;6687;47.790;7.322;2023-05-02T15:00:37;99413.50;;;26.16;28.24
13241;BME280;6687;47.790;7.322;2023-05-02T15:03:05;99411.22;;;27.04;29.58
13241;BME280;6687;47.790;7.322;2023-05-02T15:05:32;99412.56;;;27.27;28.49
13241;BME280;6687;47.790;7.322;2023-05-02T15:07:59;99418.94;;;25.81;27.43
13241;BME280;6687;47.790;7.322;2023-05-02T15:10:27;99414.00;;;27.02;31.46
13241;BME280;6687;47.790;7.322;2023-05-02T15:12:53;99414.81;;;26.09;28.95
13241;BME280;6687;47.790;7.322;2023-05-02T15:15:20;99414.63;;;26.12;30.42
13241;BME280;6687;47.790;7.322;2023-05-02T15:17:49;99416.09;;;26.02;29.13
13241;BME280;6687;47.790;7.322;2023-05-02T15:20:16;99418.28;;;25.93;29.46
13241;BME280;6687;47.790;7.322;2023-05-02T15:22:43;99418.06;;;26.46;29.13
13241;BME280;6687;47.790;7.322;2023-05-02T15:25:09;99423.06;;;25.87;30.04
13241;BME280;6687;47.790;7.322;2023-05-02T15:27:38;99419.00;;;25.46;30.45
13241;BME280;6687;47.790;7.322;2023-05-02T15:30:07;99416.44;;;26.11;29.43
13241;BME280;6687;47.790;7.322;2023-05-02T15:32:35;99421.38;;;26.02;30.20
13241;BME280;6687;47.790;7.322;2023-05-02T15:35:05;99422.28;;;25.51;31.87
13241;BME280;6687;47.790;7.322;2023-05-02T15:37:33;99419.59;;;26.18;30.01
13241;BME280;6687;47.790;7.322;2023-05-02T15:40:00;99431.91;;;25.70;31.77
13241;BME280;6687;47.790;7.322;2023-05-02T15:42:28;99435.31;;;25.89;30.65
13241;BME280;6687;47.790;7.322;2023-05-02T15:44:58;99434.63;;;25.68;30.55
13241;BME280;6687;47.790;7.322;2023-05-02T15:47:25;99427.78;;;25.64;33.00
13241;BME280;6687;47.790;7.322;2023-05-02T15:49:53;99434.59;;;25.17;32.13
13241;BME280;6687;47.790;7.322;2023-05-02T15:52:20;99442.28;;;25.92;33.19
13241;BME280;6687;47.790;7.322;2023-05-02T15:54:47;99442.84;;;24.94;32.51
13241;BME280;6687;47.790;7.322;2023-05-02T15:57:16;99441.16;;;25.63;31.71
13241;BME280;6687;47.790;7.322;2023-05-02T15:59:43;99440.44;;;24.70;31.48
13241;BME280;6687;47.790;7.322;2023-05-02T16:02:11;99451.06;;;24.32;32.11
13241;BME280;6687;47.790;7.322;2023-05-02T16:04:38;99443.31;;;24.47;31.43
13241;BME280;6687;47.790;7.322;2023-05-02T16:07:04;99446.25;;;24.96;30.13
13241;BME280;6687;47.790;7.322;2023-05-02T16:09:31;99442.94;;;25.10;30.03
13241;BME280;6687;47.790;7.322;2023-05-02T16:11:58;99443.97;;;25.42;32.28
13241;BME280;6687;47.790;7.322;2023-05-02T16:14:25;99445.81;;;25.05;29.48
13241;BME280;6687;47.790;7.322;2023-05-02T16:16:53;99446.47;;;24.55;30.25
13241;BME280;6687;47.790;7.322;2023-05-02T16:19:21;99438.16;;;25.16;29.86
13241;BME280;6687;47.790;7.322;2023-05-02T16:21:48;99446.28;;;25.13;29.93
13241;BME280;6687;47.790;7.322;2023-05-02T16:24:15;99440.13;;;24.95;30.37
13241;BME280;6687;47.790;7.322;2023-05-02T16:26:41;99451.25;;;25.02;31.17
13241;BME280;6687;47.790;7.322;2023-05-02T16:29:09;99444.06;;;24.31;31.62
13241;BME280;6687;47.790;7.322;2023-05-02T16:31:36;99443.19;;;25.23;30.92
13241;BME280;6687;47.790;7.322;2023-05-02T16:34:03;99450.28;;;24.49;31.79
13241;BME280;6687;47.790;7.322;2023-05-02T16:36:31;99456.84;;;24.78;31.69
13241;BME280;6687;47.790;7.322;2023-05-02T16:38:58;99455.56;;;24.68;32.10
13241;BME280;6687;47.790;7.322;2023-05-02T16:41:24;99454.47;;;23.96;32.33
13241;BME280;6687;47.790;7.322;2023-05-02T16:43:51;99461.84;;;23.90;33.08
13241;BME280;6687;47.790;7.322;2023-05-02T16:46:18;99463.75;;;23.86;31.58
13241;BME280;6687;47.790;7.322;2023-05-02T16:48:45;99470.75;;;23.87;32.27
13241;BME280;6687;47.790;7.322;2023-05-02T16:51:11;99468.25;;;23.84;32.70
13241;BME280;6687;47.790;7.322;2023-05-02T16:53:39;99471.09;;;23.59;32.37
13241;BME280;6687;47.790;7.322;2023-05-02T16:56:07;99477.84;;;23.66;32.35
13241;BME280;6687;47.790;7.322;2023-05-02T16:58:34;99479.56;;;22.82;33.87
13241;BME280;6687;47.790;7.322;2023-05-02T17:01:01;99476.31;;;22.52;34.68
13241;BME280;6687;47.790;7.322;2023-05-02T17:03:27;99473.28;;;22.62;34.59
13241;BME280;6687;47.790;7.322;2023-05-02T17:05:57;99467.84;;;22.66;34.76
13241;BME280;6687;47.790;7.322;2023-05-02T17:08:24;99478.69;;;23.46;35.60
13241;BME280;6687;47.790;7.322;2023-05-02T17:10:52;99471.19;;;22.93;34.49
13241;BME280;6687;47.790;7.322;2023-05-02T17:13:19;99484.47;;;22.22;35.42
13241;BME280;6687;47.790;7.322;2023-05-02T17:15:46;99492.03;;;22.08;35.97
13241;BME280;6687;47.790;7.322;2023-05-02T17:18:13;99482.63;;;23.15;35.00
13241;BME280;6687;47.790;7.322;2023-05-02T17:20:39;99484.31;;;22.03;36.64
13241;BME280;6687;47.790;7.322;2023-05-02T17:23:06;99492.56;;;22.87;35.40
13241;BME280;6687;47.790;7.322;2023-05-02T17:25:33;99492.16;;;22.52;36.17
13241;BME280;6687;47.790;7.322;2023-05-02T17:28:01;99489.38;;;23.22;36.92
13241;BME280;6687;47.790;7.322;2023-05-02T17:30:28;99494.72;;;22.31;37.23
13241;BME280;6687;47.790;7.322;2023-05-02T17:32:55;99495.31;;;21.65;38.46
13241;BME280;6687;47.790;7.322;2023-05-02T17:35:23;99496.75;;;22.70;36.07
13241;BME280;6687;47.790;7.322;2023-05-02T17:37:50;99501.06;;;22.95;36.66
13241;BME280;6687;47.790;7.322;2023-05-02T17:40:17;99507.06;;;21.29;37.49
13241;BME280;6687;47.790;7.322;2023-05-02T17:42:43;99509.97;;;20.93;38.05
13241;BME280;6687;47.790;7.322;2023-05-02T17:45:12;99507.41;;;20.91;38.16
13241;BME280;6687;47.790;7.322;2023-05-02T17:47:39;99511.41;;;20.75;38.57
13241;BME280;6687;47.790;7.322;2023-05-02T17:50:07;99517.47;;;20.78;38.30
13241;BME280;6687;47.790;7.322;2023-05-02T17:52:34;99520.44;;;20.36;38.54
13241;BME280;6687;47.790;7.322;2023-05-02T17:55:01;99518.81;;;20.92;38.34
13241;BME280;6687;47.790;7.322;2023-05-02T17:57:28;99521.00;;;20.48;40.36
13241;BME280;6687;47.790;7.322;2023-05-02T17:59:55;99521.81;;;20.50;38.75
13241;BME280;6687;47.790;7.322;2023-05-02T18:02:25;99522.03;;;20.73;38.88
13241;BME280;6687;47.790;7.322;2023-05-02T18:04:52;99526.63;;;20.65;38.78
13241;BME280;6687;47.790;7.322;2023-05-02T18:07:19;99518.22;;;20.82;38.66
13241;BME280;6687;47.790;7.322;2023-05-02T18:09:49;99531.06;;;20.93;38.71
13241;BME280;6687;47.790;7.322;2023-05-02T18:12:16;99528.72;;;20.54;39.81
13241;BME280;6687;47.790;7.322;2023-05-02T18:14:43;99530.53;;;19.89;40.18
13241;BME280;6687;47.790;7.322;2023-05-02T18:17:09;99526.06;;;20.24;40.00
13241;BME280;6687;47.790;7.322;2023-05-02T18:19:38;99523.81;;;19.79;42.26
13241;BME280;6687;47.790;7.322;2023-05-02T18:22:05;99527.56;;;20.01;39.95
13241;BME280;6687;47.790;7.322;2023-05-02T18:24:32;99526.69;;;20.34;40.11
13241;BME280;6687;47.790;7.322;2023-05-02T18:27:00;99521.34;;;20.05;40.79
13241;BME280;6687;47.790;7.322;2023-05-02T18:29:27;99529.69;;;19.54;41.99
13241;BME280;6687;47.790;7.322;2023-05-02T18:31:54;99537.13;;;19.37;41.83
13241;BME280;6687;47.790;7.322;2023-05-02T18:34:20;99528.47;;;18.96;42.43
13241;BME280;6687;47.790;7.322;2023-05-02T18:36:48;99529.44;;;18.92;42.63
13241;BME280;6687;47.790;7.322;2023-05-02T18:39:15;99543.69;;;18.38;44.12
13241;BME280;6687;47.790;7.322;2023-05-02T18:41:42;99540.47;;;18.65;43.48